Time;durP1;ratioP1;P1;durP2;ratioP2;P2;SDS_P1;SDS_P2;PMS_P1;PMS_P2;Temp;Humidity;BMP_temperature;BMP_pressure;BME280_temperature;BME280_humidity;BME280_pressure;Samples;Min_cycle;Max_cycle;Signal;HPM_P1;HPM_P2
2020/12/02 00:00:47;;;;;;;35.20;15.55;;;2.90;99.90;;;;;;5031845;28;20128;-70
2020/12/02 00:03:21;;;;;;;43.17;17.58;;;2.90;99.90;;;;;;5032490;28;20567;-71
2020/12/02 00:05:50;;;;;;;38.13;16.77;;;2.90;99.90;;;;;;5034776;28;20080;-70
2020/12/02 00:08:36;;;;;;;35.25;16.30;;;2.90;99.90;;;;;;5031426;28;20084;-71
2020/12/02 00:11:04;;;;;;;34.67;15.10;;;2.90;99.90;;;;;;5029507;28;20021;-70
2020/12/02 00:13:32;;;;;;;33.53;15.05;;;3.00;99.90;;;;;;5032531;28;20097;-70
2020/12/02 00:15:58;;;;;;;35.88;15.70;;;3.00;99.90;;;;;;5037341;28;20070;-70
2020/12/02 00:18:24;;;;;;;39.45;16.10;;;3.00;99.90;;;;;;5030607;28;20156;-71
2020/12/02 00:20:50;;;;;;;39.38;15.77;;;3.00;99.90;;;;;;5052376;28;20160;-70
2020/12/02 00:23:18;;;;;;;37.92;16.00;;;2.90;99.90;;;;;;5031496;28;20138;-70
2020/12/02 00:25:43;;;;;;;40.35;16.23;;;3.00;99.90;;;;;;5033443;28;20080;-70
2020/12/02 00:28:11;;;;;;;37.40;15.82;;;3.00;99.90;;;;;;5029349;28;20084;-70
2020/12/02 00:30:39;;;;;;;44.75;17.23;;;3.00;99.90;;;;;;5030256;28;20014;-70
2020/12/02 00:33:16;;;;;;;62.17;19.70;;;3.00;99.90;;;;;;5031322;28;20017;-70
2020/12/02 00:35:42;;;;;;;54.55;20.35;;;3.00;99.90;;;;;;5033045;28;20029;-70
2020/12/02 00:38:09;;;;;;;49.72;18.23;;;3.00;99.90;;;;;;5030026;28;20028;-70
2020/12/02 00:40:37;;;;;;;37.78;15.93;;;3.00;99.90;;;;;;5027296;28;20018;-70
2020/12/02 00:43:03;;;;;;;38.03;15.77;;;3.00;99.90;;;;;;5018378;28;20028;-70
2020/12/02 00:45:31;;;;;;;47.50;18.58;;;3.00;99.90;;;;;;5034548;28;20035;-70
2020/12/02 00:48:00;;;;;;;39.90;17.00;;;3.00;99.90;;;;;;5031099;28;20475;-71
2020/12/02 00:50:25;;;;;;;40.63;16.77;;;3.00;99.90;;;;;;5033422;28;20036;-70
2020/12/02 00:53:02;;;;;;;40.58;17.05;;;3.00;99.90;;;;;;5031024;28;20025;-71
2020/12/02 00:55:30;;;;;;;56.67;19.70;;;3.00;99.90;;;;;;5035282;28;20033;-70
2020/12/02 00:57:55;;;;;;;58.47;20.08;;;3.00;99.90;;;;;;5033046;28;20033;-71
2020/12/02 01:00:24;;;;;;;60.38;18.75;;;2.90;99.90;;;;;;5019060;28;20092;-70
2020/12/02 01:03:00;;;;;;;72.30;21.27;;;2.80;99.90;;;;;;5029174;28;20049;-71
2020/12/02 01:05:30;;;;;;;46.47;18.48;;;2.80;99.90;;;;;;5056169;28;20119;-70
2020/12/02 01:08:09;;;;;;;41.30;16.33;;;2.80;99.90;;;;;;5033428;28;20108;-71
2020/12/02 01:10:34;;;;;;;57.63;17.95;;;2.80;99.90;;;;;;5027865;28;20025;-70
2020/12/02 01:13:00;;;;;;;41.78;16.30;;;2.80;99.90;;;;;;5027263;28;20040;-70
2020/12/02 01:15:26;;;;;;;43.40;17.50;;;2.80;99.90;;;;;;5026781;28;20026;-70
2020/12/02 01:18:18;;;;;;;38.15;15.65;;;2.80;99.90;;;;;;5026908;28;20049;-70
2020/12/02 01:20:44;;;;;;;32.42;15.30;;;2.80;99.90;;;;;;5027509;28;20030;-70
2020/12/02 01:23:11;;;;;;;33.90;14.82;;;2.80;99.90;;;;;;5025910;28;20128;-70
2020/12/02 01:25:37;;;;;;;34.90;14.60;;;2.80;99.90;;;;;;5022203;28;20032;-70
2020/12/02 01:28:08;;;;;;;46.25;16.63;;;2.80;99.90;;;;;;5030590;28;20386;-70
2020/12/02 01:30:39;;;;;;;33.70;12.27;;;2.80;99.90;;;;;;5045646;28;20026;-70
2020/12/02 01:33:07;;;;;;;54.72;17.40;;;2.80;99.90;;;;;;5029482;28;20036;-70
2020/12/02 01:35:35;;;;;;;39.70;14.45;;;2.80;99.90;;;;;;5030562;28;20025;-70
2020/12/02 01:38:05;;;;;;;49.55;16.33;;;2.80;99.90;;;;;;5040707;28;20063;-70
2020/12/02 01:40:32;;;;;;;51.72;16.60;;;2.80;99.90;;;;;;5027972;28;20029;-70
2020/12/02 01:43:03;;;;;;;40.15;15.57;;;2.70;99.90;;;;;;5033844;28;20158;-70
2020/12/02 01:45:49;;;;;;;47.45;16.02;;;2.70;99.90;;;;;;5030702;28;20029;-70
2020/12/02 01:48:27;;;;;;;45.63;15.77;;;2.70;99.90;;;;;;5020552;28;20099;-71
2020/12/02 01:51:16;;;;;;;42.53;15.32;;;2.60;99.90;;;;;;5033464;28;20022;-70
2020/12/02 01:53:59;;;;;;;38.53;14.70;;;2.60;99.90;;;;;;5018475;28;20700;-70
2020/12/02 01:56:39;;;;;;;34.63;14.80;;;2.60;99.90;;;;;;5031519;28;20044;-70
2020/12/02 01:59:19;;;;;;;28.75;12.65;;;2.60;99.90;;;;;;5038466;28;20075;-70
2020/12/02 02:02:07;;;;;;;34.22;14.75;;;2.60;99.90;;;;;;5036254;28;20096;-70
2020/12/02 02:04:56;;;;;;;28.95;13.80;;;2.70;99.90;;;;;;5031245;28;20021;-70
2020/12/02 02:07:24;;;;;;;25.48;11.70;;;2.70;99.90;;;;;;5024131;28;20055;-71
2020/12/02 02:09:54;;;;;;;24.98;12.50;;;2.70;99.90;;;;;;5030269;28;20029;-70
2020/12/02 02:12:42;;;;;;;25.92;12.48;;;2.80;99.90;;;;;;5030389;28;20028;-70
2020/12/02 02:15:29;;;;;;;23.92;12.68;;;2.80;99.90;;;;;;5030816;28;20044;-70
2020/12/02 02:17:56;;;;;;;23.85;11.80;;;2.80;99.90;;;;;;5034547;28;20048;-70
2020/12/02 02:20:26;;;;;;;20.45;11.50;;;2.90;99.90;;;;;;5027613;28;20029;-70
2020/12/02 02:22:51;;;;;;;21.70;12.20;;;2.90;99.90;;;;;;5031094;28;20049;-71
2020/12/02 02:25:17;;;;;;;20.40;11.65;;;2.90;99.90;;;;;;5032922;28;20547;-70
2020/12/02 02:27:47;;;;;;;18.83;11.02;;;2.90;99.90;;;;;;5032218;28;20100;-71
2020/12/02 02:30:18;;;;;;;22.48;11.70;;;3.00;99.90;;;;;;5033811;28;20025;-71
2020/12/02 02:32:45;;;;;;;20.83;11.07;;;3.00;99.90;;;;;;5022219;28;20175;-71
2020/12/02 02:35:13;;;;;;;19.10;10.38;;;3.00;99.90;;;;;;5017431;28;20111;-71
2020/12/02 02:37:39;;;;;;;22.55;11.80;;;3.00;99.90;;;;;;5029646;28;20037;-70
2020/12/02 02:40:06;;;;;;;19.60;10.57;;;3.00;99.90;;;;;;5030381;28;20113;-70
2020/12/02 02:42:41;;;;;;;22.52;11.10;;;3.00;99.90;;;;;;5033408;28;20080;-70
2020/12/02 02:45:21;;;;;;;18.63;10.00;;;3.00;99.90;;;;;;5032651;28;20506;-70
2020/12/02 02:47:47;;;;;;;18.95;10.77;;;3.00;99.90;;;;;;5031570;28;20192;-71
2020/12/02 02:50:17;;;;;;;17.50;10.10;;;3.00;99.90;;;;;;5032466;28;20588;-73
2020/12/02 02:52:43;;;;;;;17.48;9.57;;;3.00;99.90;;;;;;5026605;28;20041;-70
2020/12/02 02:55:11;;;;;;;17.70;9.75;;;3.10;99.90;;;;;;5031049;28;20033;-71
2020/12/02 02:57:39;;;;;;;19.08;9.85;;;3.00;99.90;;;;;;5030483;28;20094;-71
2020/12/02 03:00:05;;;;;;;23.52;12.30;;;3.10;99.90;;;;;;5024530;28;20040;-70
2020/12/02 03:02:31;;;;;;;19.42;11.30;;;3.00;99.90;;;;;;5031692;28;20025;-71
2020/12/02 03:04:57;;;;;;;19.27;11.07;;;3.00;99.90;;;;;;5033832;28;20147;-71
2020/12/02 03:07:23;;;;;;;18.90;10.82;;;3.00;99.90;;;;;;5016356;28;20135;-71
2020/12/02 03:09:48;;;;;;;22.23;11.55;;;3.00;99.90;;;;;;5030995;28;20065;-71
2020/12/02 03:12:16;;;;;;;22.67;11.70;;;3.00;99.90;;;;;;5028549;28;20033;-71
2020/12/02 03:14:42;;;;;;;17.95;9.93;;;3.00;99.90;;;;;;5032866;28;20030;-71
2020/12/02 03:17:13;;;;;;;17.77;9.82;;;3.00;99.90;;;;;;5029394;28;20041;-71
2020/12/02 03:19:42;;;;;;;15.48;9.13;;;3.10;99.90;;;;;;5021755;28;20105;-71
2020/12/02 03:22:10;;;;;;;18.48;10.40;;;3.10;99.90;;;;;;5020303;28;20347;-71
2020/12/02 03:24:36;;;;;;;16.85;10.05;;;3.10;99.90;;;;;;5044913;28;20038;-71
2020/12/02 03:27:01;;;;;;;19.63;10.50;;;3.10;99.90;;;;;;5018750;28;20033;-71
2020/12/02 03:29:27;;;;;;;17.38;9.73;;;3.10;99.90;;;;;;5028280;28;20024;-70
2020/12/02 03:31:55;;;;;;;18.38;10.85;;;3.10;99.90;;;;;;5031846;28;20091;-70
2020/12/02 03:34:21;;;;;;;20.65;11.85;;;3.10;99.90;;;;;;5026637;28;20030;-71
2020/12/02 03:36:49;;;;;;;21.05;11.60;;;3.10;99.90;;;;;;5020694;28;20082;-71
2020/12/02 03:39:20;;;;;;;21.20;11.50;;;3.10;99.90;;;;;;5027550;28;20044;-71
2020/12/02 03:41:45;;;;;;;18.80;11.60;;;3.20;99.90;;;;;;5031400;28;20469;-71
2020/12/02 03:44:11;;;;;;;20.10;10.88;;;3.10;99.90;;;;;;5032114;28;20033;-71
2020/12/02 03:46:37;;;;;;;19.27;10.90;;;3.10;99.90;;;;;;5030120;28;20450;-71
2020/12/02 03:49:05;;;;;;;19.70;11.55;;;3.10;99.90;;;;;;5015463;28;20087;-71
2020/12/02 03:51:31;;;;;;;20.13;11.13;;;3.10;99.90;;;;;;5018279;28;20575;-71
2020/12/02 03:53:57;;;;;;;18.88;11.00;;;3.10;99.90;;;;;;4993774;28;20030;-71
2020/12/02 03:56:23;;;;;;;19.70;11.27;;;3.20;99.90;;;;;;5030969;28;20036;-71
2020/12/02 03:58:48;;;;;;;19.52;10.98;;;3.10;99.90;;;;;;5024703;28;20691;-71
2020/12/02 04:01:16;;;;;;;20.63;12.18;;;3.20;99.90;;;;;;5029302;28;20033;-71
2020/12/02 04:03:41;;;;;;;21.27;12.10;;;3.10;99.90;;;;;;5049040;28;20135;-71
2020/12/02 04:06:10;;;;;;;23.50;13.25;;;3.10;99.90;;;;;;5028883;28;20105;-71
2020/12/02 04:08:42;;;;;;;22.88;12.27;;;3.20;99.90;;;;;;5029683;28;20352;-71
2020/12/02 04:11:12;;;;;;;23.65;13.35;;;3.20;99.90;;;;;;5029273;28;20057;-71
2020/12/02 04:13:40;;;;;;;26.05;14.02;;;3.20;99.90;;;;;;5028096;28;20037;-71
2020/12/02 04:16:08;;;;;;;22.55;11.98;;;3.10;99.90;;;;;;5030353;28;20100;-71
2020/12/02 04:18:34;;;;;;;22.08;12.63;;;3.20;99.90;;;;;;5015378;28;20064;-71
2020/12/02 04:21:02;;;;;;;22.58;12.68;;;3.10;99.90;;;;;;5028286;28;20451;-71
2020/12/02 04:23:27;;;;;;;21.33;12.88;;;3.10;99.90;;;;;;5012764;28;20375;-71
2020/12/02 04:25:55;;;;;;;22.23;12.45;;;3.10;99.90;;;;;;5032682;28;20024;-71
2020/12/02 04:28:23;;;;;;;23.63;12.00;;;3.10;99.90;;;;;;5026759;28;20021;-71
2020/12/02 04:30:52;;;;;;;20.65;11.75;;;3.10;99.90;;;;;;5029582;28;20029;-71
2020/12/02 04:33:17;;;;;;;22.02;12.10;;;3.10;99.90;;;;;;5031035;28;20091;-71
2020/12/02 04:35:43;;;;;;;21.23;12.43;;;3.10;99.90;;;;;;5030833;28;20032;-71
2020/12/02 04:38:11;;;;;;;22.20;12.73;;;3.10;99.90;;;;;;5028033;28;20057;-71
2020/12/02 04:40:42;;;;;;;22.88;12.15;;;3.10;99.90;;;;;;5027744;28;20028;-71
2020/12/02 04:43:41;;;;;;;20.42;11.57;;;3.10;99.90;;;;;;5022408;28;20029;-71
2020/12/02 04:46:21;;;;;;;21.17;11.50;;;3.10;99.90;;;;;;5007406;28;20033;-71
2020/12/02 04:48:51;;;;;;;21.10;11.93;;;3.10;99.90;;;;;;5016449;28;20025;-71
2020/12/02 04:51:25;;;;;;;23.33;12.75;;;3.10;99.90;;;;;;5045456;28;20041;-71
2020/12/02 04:53:57;;;;;;;22.83;12.57;;;3.10;99.90;;;;;;5027722;28;20033;-71
2020/12/02 04:56:26;;;;;;;19.42;11.45;;;3.10;99.90;;;;;;5029809;28;20174;-71
2020/12/02 04:58:52;;;;;;;24.98;13.20;;;3.10;99.90;;;;;;5028046;28;20485;-73
2020/12/02 05:01:22;;;;;;;25.27;13.18;;;3.10;99.90;;;;;;5029175;28;20106;-71
2020/12/02 05:03:59;;;;;;;21.45;12.32;;;3.10;99.90;;;;;;5033007;28;20091;-71
2020/12/02 05:06:25;;;;;;;26.00;13.45;;;3.10;99.90;;;;;;5034356;28;20032;-71
2020/12/02 05:08:51;;;;;;;24.08;12.80;;;3.10;99.90;;;;;;5028109;28;20032;-71
2020/12/02 05:11:19;;;;;;;26.83;14.60;;;3.10;99.90;;;;;;5020845;28;20124;-71
2020/12/02 05:14:00;;;;;;;27.35;14.38;;;3.10;99.90;;;;;;5030076;28;20160;-71
2020/12/02 05:16:26;;;;;;;29.30;15.32;;;3.10;99.90;;;;;;5031609;28;20170;-71
2020/12/02 05:19:05;;;;;;;36.85;15.68;;;3.10;99.90;;;;;;5026218;28;20104;-71
2020/12/02 05:21:41;;;;;;;33.10;16.13;;;3.00;99.90;;;;;;5018345;28;20029;-73
2020/12/02 05:24:14;;;;;;;30.33;15.45;;;3.00;99.90;;;;;;5034090;28;20052;-71
2020/12/02 05:26:48;;;;;;;33.00;16.48;;;3.00;99.90;;;;;;5027271;28;20116;-71
2020/12/02 05:29:39;;;;;;;38.25;17.38;;;3.00;99.90;;;;;;5030624;28;20026;-71
2020/12/02 05:32:22;;;;;;;56.42;20.17;;;3.00;99.90;;;;;;5028687;28;20030;-71
2020/12/02 05:34:48;;;;;;;39.08;17.77;;;2.90;99.90;;;;;;5016490;28;20550;-71
2020/12/02 05:37:30;;;;;;;61.13;21.30;;;2.90;99.90;;;;;;5028270;28;20037;-71
2020/12/02 05:40:02;;;;;;;51.70;20.93;;;2.90;99.90;;;;;;5032848;28;20121;-71
2020/12/02 05:42:36;;;;;;;34.03;19.30;;;2.80;99.90;;;;;;5024935;28;20037;-73
2020/12/02 05:45:16;;;;;;;54.30;19.13;;;2.90;99.90;;;;;;5028207;28;20041;-71
2020/12/02 05:47:44;;;;;;;44.28;19.48;;;2.80;99.90;;;;;;5032850;28;20232;-72
2020/12/02 05:50:14;;;;;;;41.92;18.38;;;2.80;99.90;;;;;;5025843;28;20056;-72
2020/12/02 05:52:40;;;;;;;57.83;19.40;;;2.80;99.90;;;;;;5025986;28;20587;-71
2020/12/02 05:55:09;;;;;;;60.08;22.25;;;2.80;99.90;;;;;;5030598;28;20037;-71
2020/12/02 05:57:35;;;;;;;58.95;20.48;;;2.80;99.90;;;;;;5027674;28;20033;-71
2020/12/02 06:00:01;;;;;;;40.40;17.90;;;2.80;99.90;;;;;;5017804;28;20033;-71
2020/12/02 06:02:26;;;;;;;40.28;17.92;;;2.80;99.90;;;;;;5026884;28;20034;-72
2020/12/02 06:04:59;;;;;;;44.90;17.60;;;2.80;99.90;;;;;;5028052;28;20033;-72
2020/12/02 06:07:27;;;;;;;79.18;21.45;;;2.90;99.90;;;;;;5027608;28;20033;-71
2020/12/02 06:09:53;;;;;;;48.85;18.88;;;2.90;99.90;;;;;;5025214;28;20021;-71
2020/12/02 06:12:21;;;;;;;43.95;17.90;;;2.90;99.90;;;;;;5031493;28;20029;-71
2020/12/02 06:14:47;;;;;;;44.40;18.92;;;2.90;99.90;;;;;;5028087;28;20030;-71
2020/12/02 06:17:30;;;;;;;41.72;17.98;;;2.90;99.90;;;;;;5030249;28;20040;-71
2020/12/02 06:19:56;;;;;;;63.65;20.42;;;2.90;99.90;;;;;;5001440;28;20440;-71
2020/12/02 06:22:35;;;;;;;41.85;18.30;;;2.90;99.90;;;;;;5028758;28;20041;-71
2020/12/02 06:25:01;;;;;;;59.17;20.42;;;2.90;99.90;;;;;;5018320;28;20430;-71
2020/12/02 06:27:30;;;;;;;46.20;19.35;;;2.90;99.90;;;;;;5031147;28;20609;-71
2020/12/02 06:30:10;;;;;;;64.30;21.85;;;2.90;99.90;;;;;;5032532;28;20049;-71
2020/12/02 06:32:38;;;;;;;69.65;24.05;;;2.90;99.90;;;;;;5026895;28;20022;-71
2020/12/02 06:35:13;;;;;;;71.80;22.27;;;2.80;99.90;;;;;;5024152;28;20030;-71
2020/12/02 06:37:41;;;;;;;57.78;22.60;;;2.80;99.90;;;;;;5025871;28;20045;-71
2020/12/02 06:40:07;;;;;;;61.63;22.60;;;2.70;99.90;;;;;;5024591;28;21624;-71
2020/12/02 06:42:41;;;;;;;48.90;20.40;;;2.70;99.90;;;;;;5025390;28;20026;-71
2020/12/02 06:45:16;;;;;;;71.45;23.40;;;2.70;99.90;;;;;;5019632;28;20394;-71
2020/12/02 06:47:57;;;;;;;77.05;22.98;;;2.70;99.90;;;;;;5035165;28;20018;-71
2020/12/02 06:50:24;;;;;;;68.65;23.30;;;2.70;99.90;;;;;;5030210;28;20115;-73
2020/12/02 06:52:50;;;;;;;48.28;22.13;;;2.70;99.90;;;;;;5031068;28;20163;-71
2020/12/02 06:55:18;;;;;;;55.70;21.92;;;2.60;99.90;;;;;;5019254;28;20341;-71
2020/12/02 06:57:44;;;;;;;50.28;22.83;;;2.60;99.90;;;;;;5031671;28;20040;-71
2020/12/02 07:00:22;;;;;;;50.97;22.92;;;2.60;99.90;;;;;;5033288;28;20093;-71
2020/12/02 07:02:53;;;;;;;42.85;20.63;;;2.60;99.90;;;;;;5026305;28;20124;-71
2020/12/02 07:05:31;;;;;;;46.88;22.67;;;2.60;99.90;;;;;;5027897;28;20034;-71
2020/12/02 07:08:09;;;;;;;41.47;20.05;;;2.60;99.90;;;;;;5028169;28;20036;-71
2020/12/02 07:10:35;;;;;;;43.42;20.45;;;2.60;99.90;;;;;;5032364;28;20039;-72
2020/12/02 07:13:01;;;;;;;37.88;19.80;;;2.60;99.90;;;;;;5028421;28;20021;-71
2020/12/02 07:15:27;;;;;;;51.30;23.08;;;2.60;99.90;;;;;;5031509;28;20087;-71
2020/12/02 07:18:07;;;;;;;51.20;23.70;;;2.60;99.90;;;;;;5035060;28;20044;-70
2020/12/02 07:20:33;;;;;;;49.50;22.55;;;2.50;99.90;;;;;;5018346;28;20406;-71
2020/12/02 07:22:59;;;;;;;68.35;25.27;;;2.50;99.90;;;;;;5032348;28;20052;-71
2020/12/02 07:25:27;;;;;;;56.58;22.60;;;2.50;99.90;;;;;;5012888;28;20035;-71
2020/12/02 07:27:52;;;;;;;51.65;24.23;;;2.50;99.90;;;;;;5030106;28;20030;-71
2020/12/02 07:30:34;;;;;;;62.70;25.35;;;2.40;99.90;;;;;;5048670;28;20036;-72
2020/12/02 07:33:16;;;;;;;59.03;24.25;;;2.40;99.90;;;;;;5031257;28;20030;-74
2020/12/02 07:35:42;;;;;;;55.35;22.92;;;2.40;99.90;;;;;;5032094;28;20176;-73
2020/12/02 07:38:09;;;;;;;60.85;23.58;;;2.30;99.90;;;;;;5016882;28;20132;-74
2020/12/02 07:40:37;;;;;;;50.75;23.30;;;2.30;99.90;;;;;;5022877;28;20022;-74
2020/12/02 07:43:04;;;;;;;45.35;21.17;;;2.30;99.90;;;;;;5025634;28;20130;-74
2020/12/02 07:45:34;;;;;;;46.05;21.67;;;2.30;99.90;;;;;;5014528;28;20030;-73
2020/12/02 07:48:14;;;;;;;54.25;22.50;;;2.40;99.90;;;;;;5018927;28;20032;-74
2020/12/02 07:50:53;;;;;;;60.05;23.13;;;2.40;99.90;;;;;;5031627;28;20033;-74
2020/12/02 07:53:25;;;;;;;52.47;21.80;;;2.40;99.90;;;;;;5045695;28;20421;-73
2020/12/02 07:55:51;;;;;;;34.13;16.05;;;2.40;99.90;;;;;;5033187;28;20030;-74
2020/12/02 07:58:30;;;;;;;46.03;21.95;;;2.40;99.90;;;;;;5028198;28;20116;-74
2020/12/02 08:00:56;;;;;;;44.20;20.30;;;2.40;99.90;;;;;;5032146;28;20026;-74
2020/12/02 08:03:48;;;;;;;51.20;24.10;;;2.40;99.90;;;;;;5029073;28;20014;-74
2020/12/02 08:06:47;;;;;;;44.60;20.73;;;2.40;99.90;;;;;;5060934;28;20052;-73
2020/12/02 08:09:12;;;;;;;52.65;21.30;;;2.40;99.90;;;;;;5034153;28;20022;-74
2020/12/02 08:11:53;;;;;;;43.05;20.00;;;2.40;99.90;;;;;;5026681;28;20059;-73
2020/12/02 08:14:36;;;;;;;49.20;20.92;;;2.40;99.90;;;;;;5033401;28;20041;-71
2020/12/02 08:17:22;;;;;;;46.88;20.38;;;2.40;99.90;;;;;;5055304;28;20025;-72
2020/12/02 08:19:51;;;;;;;56.75;22.13;;;2.40;99.90;;;;;;5033635;28;20025;-71
2020/12/02 08:22:40;;;;;;;48.60;20.35;;;2.40;99.90;;;;;;5027239;28;20030;-71
2020/12/02 08:25:21;;;;;;;43.95;20.23;;;2.40;99.90;;;;;;5033788;28;20050;-73
2020/12/02 08:27:51;;;;;;;41.53;18.85;;;2.40;99.90;;;;;;5032879;28;20021;-73
2020/12/02 08:30:20;;;;;;;56.97;21.65;;;2.40;99.90;;;;;;5034024;28;20021;-74
2020/12/02 08:33:12;;;;;;;40.20;19.52;;;2.40;99.90;;;;;;5027254;28;20159;-74
2020/12/02 08:35:43;;;;;;;38.13;17.90;;;2.40;99.90;;;;;;5029864;28;20047;-74
2020/12/02 08:38:29;;;;;;;37.83;18.30;;;2.40;99.90;;;;;;5030181;28;20033;-74
2020/12/02 08:40:56;;;;;;;39.30;19.27;;;2.40;99.90;;;;;;5021541;28;20029;-74
2020/12/02 08:43:30;;;;;;;35.63;19.08;;;2.50;99.90;;;;;;5010163;28;20036;-74
2020/12/02 08:46:16;;;;;;;40.58;18.83;;;2.50;99.90;;;;;;5029926;28;20025;-74
2020/12/02 08:48:43;;;;;;;36.67;17.67;;;2.50;99.90;;;;;;5009574;28;20496;-74
2020/12/02 08:51:14;;;;;;;52.20;20.75;;;2.50;99.90;;;;;;5022951;28;20045;-75
2020/12/02 08:53:40;;;;;;;38.03;18.48;;;2.50;99.90;;;;;;5010004;28;20044;-75
2020/12/02 08:56:25;;;;;;;35.80;17.75;;;2.50;99.90;;;;;;5029485;28;20020;-74
2020/12/02 08:58:51;;;;;;;39.03;18.17;;;2.50;99.90;;;;;;5016984;28;20033;-74
2020/12/02 09:01:17;;;;;;;35.63;17.70;;;2.50;99.90;;;;;;5025983;28;20056;-74
2020/12/02 09:03:45;;;;;;;39.10;19.15;;;2.60;99.90;;;;;;5028436;28;20028;-74
2020/12/02 09:06:13;;;;;;;41.80;18.58;;;2.60;99.90;;;;;;5024896;28;20039;-75
2020/12/02 09:08:39;;;;;;;36.70;17.52;;;2.60;99.90;;;;;;5023961;28;20102;-74
2020/12/02 09:11:08;;;;;;;48.00;20.63;;;2.60;99.90;;;;;;5028002;28;20132;-74
2020/12/02 09:13:34;;;;;;;41.70;18.85;;;2.60;99.90;;;;;;5022304;28;20167;-74
2020/12/02 09:16:02;;;;;;;38.95;18.65;;;2.50;99.90;;;;;;5010394;28;20521;-74
2020/12/02 09:18:34;;;;;;;47.17;19.65;;;2.60;99.90;;;;;;5022885;28;20470;-74
2020/12/02 09:21:03;;;;;;;43.03;19.80;;;2.60;99.90;;;;;;5029940;28;20108;-74
2020/12/02 09:23:32;;;;;;;51.70;20.95;;;2.60;99.90;;;;;;5025371;28;20073;-74
2020/12/02 09:25:58;;;;;;;49.85;20.67;;;2.60;99.90;;;;;;5021434;28;20021;-74
2020/12/02 09:28:33;;;;;;;45.25;20.25;;;2.50;99.90;;;;;;5024777;28;20051;-74
2020/12/02 09:31:02;;;;;;;44.27;17.33;;;2.60;99.90;;;;;;5027829;28;20096;-73
2020/12/02 09:33:33;;;;;;;51.67;21.25;;;2.50;99.90;;;;;;5012989;28;20026;-74
2020/12/02 09:36:06;;;;;;;47.80;20.45;;;2.50;99.90;;;;;;5026124;28;20116;-74
2020/12/02 09:38:32;;;;;;;45.08;20.30;;;2.50;99.90;;;;;;5030943;28;20036;-74
2020/12/02 09:41:33;;;;;;;38.42;18.17;;;2.50;99.90;;;;;;5040618;28;20554;-74
2020/12/02 09:44:35;;;;;;;44.90;19.83;;;2.50;99.90;;;;;;5026360;28;20045;-75
2020/12/02 09:47:10;;;;;;;35.80;14.83;;;2.50;99.90;;;;;;5023480;28;20036;-75
2020/12/02 09:49:37;;;;;;;40.50;18.98;;;2.50;99.90;;;;;;5029497;28;20107;-74
2020/12/02 09:52:08;;;;;;;41.47;18.95;;;2.50;99.90;;;;;;5015287;28;20075;-75
2020/12/02 09:54:45;;;;;;;29.02;13.38;;;2.60;99.90;;;;;;5023296;28;20116;-75
2020/12/02 09:57:19;;;;;;;41.85;18.92;;;2.60;99.90;;;;;;5017822;28;20112;-75
2020/12/02 09:59:49;;;;;;;38.97;17.88;;;2.70;99.90;;;;;;5021031;28;20117;-73
2020/12/02 10:02:37;;;;;;;35.10;17.33;;;2.70;99.90;;;;;;5030400;28;20027;-73
2020/12/02 10:05:44;;;;;;;37.50;17.90;;;2.80;99.90;;;;;;5024087;28;20026;-73
2020/12/02 10:08:56;;;;;;;;;;;;;;;;;;;;;
2020/12/02 10:11:44;;;;;;;51.15;20.40;;;2.90;99.90;;;;;;5024074;28;20029;-73
2020/12/02 10:14:22;;;;;;;38.42;17.45;;;2.90;99.90;;;;;;5026048;28;20033;-73
2020/12/02 10:17:30;;;;;;;34.63;15.63;;;2.90;99.90;;;;;;5025396;28;20053;-73
2020/12/02 10:20:15;;;;;;;;;;;;;;;;;;;;;
2020/12/02 10:23:25;;;;;;;33.40;16.23;;;2.90;99.90;;;;;;5029995;28;20026;-73
2020/12/02 10:26:29;;;;;;;34.75;16.33;;;2.90;99.90;;;;;;5019303;28;20052;-72
2020/12/02 10:29:02;;;;;;;30.40;15.68;;;3.00;99.90;;;;;;5010136;28;20045;-73
2020/12/02 10:31:52;;;;;;;30.55;14.68;;;3.00;99.90;;;;;;5015678;28;20037;-73
2020/12/02 10:34:41;;;;;;;35.13;16.73;;;3.00;99.90;;;;;;5007983;28;20628;-73
2020/12/02 10:37:13;;;;;;;31.00;15.38;;;3.00;99.90;;;;;;5010181;28;20037;-73
2020/12/02 10:39:38;;;;;;;32.50;15.32;;;3.00;99.90;;;;;;4999012;28;20029;-73
2020/12/02 10:42:25;;;;;;;24.77;12.85;;;3.10;99.90;;;;;;5026835;28;20474;-72
2020/12/02 10:45:13;;;;;;;28.27;14.77;;;3.10;99.90;;;;;;5027949;28;20025;-73
2020/12/02 10:48:06;;;;;;;34.78;17.02;;;3.10;99.90;;;;;;5025462;28;20149;-73
2020/12/02 10:50:38;;;;;;;28.30;13.75;;;3.20;99.90;;;;;;5014683;28;20037;-73
2020/12/02 10:53:09;;;;;;;29.60;14.55;;;3.20;99.90;;;;;;5012377;28;20466;-73
2020/12/02 10:55:39;;;;;;;26.98;13.75;;;3.20;99.90;;;;;;4996143;28;20033;-75
2020/12/02 10:58:20;;;;;;;27.73;13.82;;;3.30;99.90;;;;;;5011459;28;20091;-75
2020/12/02 11:01:00;;;;;;;20.90;10.80;;;3.30;99.90;;;;;;5009490;28;20510;-74
2020/12/02 11:04:06;;;;;;;26.25;12.50;;;3.30;99.90;;;;;;5038478;28;20301;-75
2020/12/02 11:07:08;;;;;;;24.27;12.50;;;3.30;99.90;;;;;;5018170;28;20048;-74
2020/12/02 11:09:58;;;;;;;22.42;11.50;;;3.30;99.90;;;;;;5031620;28;20690;-75
2020/12/02 11:12:30;;;;;;;24.48;11.88;;;3.40;99.90;;;;;;5030476;28;20063;-73
2020/12/02 11:15:22;;;;;;;22.35;11.48;;;3.40;99.90;;;;;;5013216;28;20036;-74
2020/12/02 11:18:02;;;;;;;21.05;10.65;;;3.40;99.90;;;;;;5013544;28;20052;-73
2020/12/02 11:20:44;;;;;;;23.48;12.10;;;3.40;99.90;;;;;;5026236;28;20110;-73
2020/12/02 11:23:48;;;;;;;19.30;10.82;;;3.40;99.90;;;;;;5017375;28;20078;-73
2020/12/02 11:26:36;;;;;;;19.13;10.50;;;3.50;99.90;;;;;;5029184;28;20041;-73
2020/12/02 11:29:03;;;;;;;20.65;10.75;;;3.50;99.90;;;;;;5033129;28;20103;-73
2020/12/02 11:32:18;;;;;;;22.10;11.77;;;3.50;99.90;;;;;;5027203;28;20036;-74
2020/12/02 11:35:01;;;;;;;22.65;12.10;;;3.50;99.90;;;;;;5028515;28;20056;-73
2020/12/02 11:38:27;;;;;;;23.02;12.40;;;3.50;99.90;;;;;;5014248;28;20398;-73
2020/12/02 11:41:51;;;;;;;21.42;11.63;;;3.50;99.90;;;;;;4963331;28;20030;-73
2020/12/02 11:45:30;;;;;;;;;;;;;;;;;;;;;
2020/12/02 11:48:37;;;;;;;25.23;12.90;;;3.40;99.90;;;;;;4888524;28;20086;-73
2020/12/02 11:51:18;;;;;;;28.02;13.93;;;3.40;99.90;;;;;;4946227;28;20077;-73
2020/12/02 11:53:59;;;;;;;26.95;14.48;;;3.40;99.90;;;;;;4958651;28;20038;-74
2020/12/02 11:56:26;;;;;;;29.02;15.05;;;3.40;99.90;;;;;;4970862;28;20027;-72
2020/12/02 11:59:15;;;;;;;26.77;14.70;;;3.30;99.90;;;;;;4970670;28;20027;-72
2020/12/02 12:01:55;;;;;;;27.65;13.80;;;3.30;99.90;;;;;;4960885;28;20149;-72
2020/12/02 12:04:33;;;;;;;26.42;14.30;;;3.40;99.90;;;;;;4966300;28;20034;-73
2020/12/02 12:07:22;;;;;;;25.30;14.25;;;3.40;99.90;;;;;;4971650;28;20048;-74
2020/12/02 12:09:57;;;;;;;28.02;14.43;;;3.40;99.90;;;;;;4627096;28;10000228;-74
2020/12/02 12:12:50;;;;;;;26.38;14.13;;;3.40;99.90;;;;;;4951642;28;20121;-74
2020/12/02 12:15:41;;;;;;;27.48;14.00;;;3.30;99.90;;;;;;4968025;28;20046;-74
2020/12/02 12:18:37;;;;;;;24.50;13.45;;;3.40;99.90;;;;;;4968996;28;20101;-74
2020/12/02 12:21:24;;;;;;;32.13;14.90;;;3.40;99.90;;;;;;5002540;28;20069;-74
2020/12/02 12:24:10;;;;;;;27.08;14.05;;;3.40;99.90;;;;;;5013662;28;20037;-74
2020/12/02 12:26:51;;;;;;;27.63;14.85;;;3.40;99.90;;;;;;5029342;28;20068;-75
2020/12/02 12:29:19;;;;;;;28.15;15.18;;;3.40;99.90;;;;;;5028223;28;20021;-74
2020/12/02 12:32:03;;;;;;;28.55;14.50;;;3.40;99.90;;;;;;5029167;28;20817;-75
2020/12/02 12:34:55;;;;;;;29.33;15.40;;;3.50;99.90;;;;;;5028609;28;20094;-74
2020/12/02 12:37:50;;;;;;;25.58;14.30;;;3.40;99.90;;;;;;5024033;28;20032;-74
2020/12/02 12:40:36;;;;;;;26.75;13.93;;;3.40;99.90;;;;;;5026757;28;20470;-74
2020/12/02 12:43:04;;;;;;;27.30;14.65;;;3.40;99.90;;;;;;5005438;28;20482;-74
2020/12/02 12:45:44;;;;;;;27.35;14.00;;;3.40;99.90;;;;;;5026614;28;20115;-74
2020/12/02 12:48:14;;;;;;;29.40;15.77;;;3.40;99.90;;;;;;5019129;28;20025;-74
2020/12/02 12:50:42;;;;;;;31.00;15.32;;;3.40;99.90;;;;;;5032784;28;20040;-74
2020/12/02 12:53:08;;;;;;;29.67;15.45;;;3.50;99.90;;;;;;5011339;28;20021;-74
2020/12/02 12:55:36;;;;;;;27.20;14.65;;;3.40;99.90;;;;;;5017984;28;20029;-74
2020/12/02 12:58:09;;;;;;;28.90;15.18;;;3.40;99.90;;;;;;5034978;28;20121;-74
2020/12/02 13:00:38;;;;;;;31.48;16.65;;;3.40;99.90;;;;;;5028920;28;20032;-74
2020/12/02 13:03:24;;;;;;;24.27;13.52;;;3.40;99.90;;;;;;5032497;28;20049;-74
2020/12/02 13:06:08;;;;;;;26.25;13.27;;;3.40;99.90;;;;;;5028626;28;20033;-74
2020/12/02 13:08:40;;;;;;;26.58;15.18;;;3.40;99.90;;;;;;5050764;28;20026;-74
2020/12/02 13:11:14;;;;;;;27.33;14.50;;;3.40;99.90;;;;;;5020578;28;20043;-74
2020/12/02 13:14:01;;;;;;;28.67;14.73;;;3.40;99.90;;;;;;5029482;28;20040;-74
2020/12/02 13:16:50;;;;;;;22.55;13.07;;;3.40;99.90;;;;;;5062675;28;20022;-74
2020/12/02 13:19:25;;;;;;;27.80;14.02;;;3.30;99.90;;;;;;5013267;28;20037;-74